African Joseph R — D5EC9 — position and weather

sailwx.info

Track history (hours):
 
Tides and Currents Weather Stations Pressure Air Temp Water Temp Dewpoint Dewpoint Depression Visibility Wind Speed Wind Dir Waves Ship Positions

African Joseph R

Last reported at 2017-Oct-14 01:20 UTC. Time now 2017-Oct-17 17:09 UTC.
Position N 27°05' W 015°18'.

Length 140 m; draft 9.1 m.

Type: Cargo ship. MMSI: 636016043.

Date/timePositionNaut miles runAvg speedWind from/ knotsBaromVisibWave heightAir tempDewpointWater temp
2017-Oct-14 01:20N 27°05' W 015°18'2813.1
2017-Oct-13 23:13N 27°33' W 015°16'313.1
2017-Oct-13 23:00N 27°36' W 015°16'713.7
2017-Oct-13 22:30N 27°43' W 015°16'713.9
2017-Oct-13 22:00N 27°50' W 015°16'713.7
2017-Oct-13 21:31N 27°56' W 015°15'612.9
2017-Oct-13 21:01N 28°03' W 015°17'612.4
2017-Oct-13 20:31N 28°06' W 015°23'1 2.5
2017-Oct-13 19:57N 28°07' W 015°25'0 0.0
2017-Oct-13 19:27N 28°07' W 015°25'0 0.0
2017-Oct-13 18:57N 28°07' W 015°24'0 0.0
2017-Oct-13 18:30N 28°07' W 015°25'0 0.0
2017-Oct-13 18:00N 28°07' W 015°25'0 0.0
2017-Oct-13 17:30N 28°07' W 015°25'0 0.0
2017-Oct-13 17:00N 28°07' W 015°25'0 0.0
2017-Oct-13 16:30N 28°07' W 015°25'0 0.0
2017-Oct-13 16:00N 28°07' W 015°25'0 0.1
2017-Oct-13 15:30N 28°07' W 015°25'0 0.1
2017-Oct-13 15:00N 28°07' W 015°25'0 0.2
2017-Oct-13 14:27N 28°07' W 015°25'0 0.1
2017-Oct-13 13:57N 28°07' W 015°25'0 0.0
2017-Oct-13 13:30N 28°07' W 015°25'0 0.1
2017-Oct-13 13:00N 28°07' W 015°25'0 0.0
2017-Oct-13 12:21N 28°07' W 015°25'0 0.0
2017-Oct-13 12:00N 28°07' W 015°25'0 0.0
2017-Oct-13 11:21N 28°07' W 015°25'0 0.0
2017-Oct-13 10:51N 28°07' W 015°25'0 0.0
2017-Oct-13 10:21N 28°07' W 015°25'0 0.1
2017-Oct-13 09:54N 28°07' W 015°25'0 0.0
2017-Oct-13 09:24N 28°07' W 015°25'0 0.1
2017-Oct-13 08:39N 28°07' W 015°25'0 0.0
2017-Oct-13 08:24N 28°07' W 015°25'0 0.0
2017-Oct-13 07:54N 28°07' W 015°25'0 0.1
2017-Oct-13 07:30N 28°07' W 015°25'0 0.1
2017-Oct-13 07:00N 28°07' W 015°25'0 0.1
2017-Oct-13 06:30N 28°07' W 015°25'0 0.1
2017-Oct-13 06:00N 28°07' W 015°25'0 0.0
2017-Oct-13 05:30N 28°07' W 015°25'0 0.0
2017-Oct-13 05:00N 28°07' W 015°25'0 0.1
2017-Oct-13 04:30N 28°07' W 015°25'0 0.0
2017-Oct-13 04:00N 28°07' W 015°25'0 0.0
2017-Oct-13 03:30N 28°07' W 015°25'0 0.2
2017-Oct-13 03:00N 28°07' W 015°25'2 3.6
2017-Oct-13 02:30N 28°08' W 015°23'3 6.0
2017-Oct-13 02:00N 28°11' W 015°22'4 7.9
2017-Oct-13 01:30N 28°15' W 015°21'5 9.2
2017-Oct-13 01:00N 28°19' W 015°20'510.2
2017-Oct-13 00:30N 28°24' W 015°18'612.1
2017-Oct-13 00:00N 28°30' W 015°16'612.7
2017-Oct-12 23:30N 28°36' W 015°14'713.1
2017-Oct-12 23:00N 28°42' W 015°13'713.4
2017-Oct-12 22:30N 28°49' W 015°11'713.3
2017-Oct-12 22:00N 28°55' W 015°09'713.2
2017-Oct-12 21:30N 29°02' W 015°07'713.3
2017-Oct-12 21:00N 29°08' W 015°05'713.3
2017-Oct-12 20:30N 29°15' W 015°03'713.3
2017-Oct-12 20:00N 29°21' W 015°01'613.1
2017-Oct-12 19:30N 29°27' W 014°59'612.6
2017-Oct-12 19:00N 29°33' W 014°57'612.6
2017-Oct-12 18:30N 29°39' W 014°55'612.7
2017-Oct-12 18:00N 29°45' W 014°54'612.7
2017-Oct-12 17:30N 29°52' W 014°52'913.1
2017-Oct-12 16:50N 30°00' W 014°49'712.9
2017-Oct-12 16:18N 30°07' W 014°48'412.0
2017-Oct-12 15:56N 30°11' W 014°47'512.0
2017-Oct-12 15:30N 30°16' W 014°45'612.0
2017-Oct-12 15:00N 30°22' W 014°43'712.0
2017-Oct-12 14:24N 30°29' W 014°41'512.2
2017-Oct-12 14:00N 30°34' W 014°40'612.6
2017-Oct-12 13:30N 30°40' W 014°38'713.1
2017-Oct-12 13:00N 30°46' W 014°36'3213.6
2017-Oct-12 10:37N 31°17' W 014°27'213.9
2017-Oct-12 10:30N 31°19' W 014°26'713.7
2017-Oct-12 10:00N 31°26' W 014°24'713.6
2017-Oct-12 09:30N 31°32' W 014°22'713.6
2017-Oct-12 09:00N 31°39' W 014°20'1113.3
2017-Oct-12 08:10N 31°49' W 014°16'213.3
2017-Oct-12 08:00N 31°51' W 014°15'40812.8
2017-Oct-11 00:00N 38°27' W 012°11'713.4
2017-Oct-10 23:30N 38°33' W 012°09'713.4
2017-Oct-10 23:01N 38°40' W 012°06'713.2
2017-Oct-10 22:31N 38°46' W 012°04'713.0
2017-Oct-10 22:00N 38°53' W 012°02'713.3
2017-Oct-10 21:30N 38°59' W 012°00'713.3
2017-Oct-10 21:00N 39°05' W 011°58'713.3
2017-Oct-10 20:30N 39°12' W 011°56'613.0
2017-Oct-10 20:00N 39°18' W 011°54'612.8
2017-Oct-10 19:30N 39°24' W 011°52'613.0
2017-Oct-10 19:00N 39°31' W 011°50'713.3
2017-Oct-10 18:30N 39°37' W 011°48'713.1
2017-Oct-10 18:00N 39°44' W 011°45'612.8
2017-Oct-10 17:30N 39°50' W 011°43'812.7
2017-Oct-10 16:54N 39°57' W 011°41'513.0
2017-Oct-10 16:30N 40°02' W 011°39'713.1
2017-Oct-10 16:00N 40°08' W 011°37'713.0
2017-Oct-10 15:30N 40°15' W 011°35'612.5
2017-Oct-10 15:00N 40°21' W 011°33'1212.2
2017-Oct-10 14:00N 40°33' W 011°30'612.4
2017-Oct-10 13:30N 40°39' W 011°28'612.8
2017-Oct-10 13:00N 40°45' W 011°25'713.1
2017-Oct-10 12:30N 40°51' W 011°22'713.1
2017-Oct-10 12:00N 40°57' W 011°20'713.1
2017-Oct-10 11:29N 41°04' W 011°18'613.4
2017-Oct-10 11:00N 41°10' W 011°16'713.6
2017-Oct-10 10:30N 41°17' W 011°14'713.5
2017-Oct-10 10:00N 41°24' W 011°12'713.2
2017-Oct-10 09:30N 41°30' W 011°10'713.6
2017-Oct-10 09:00N 41°37' W 011°08'813.7
2017-Oct-10 08:25N 41°44' W 011°05'54612.5
2017-Oct-08 12:35N 49°30' W 004°17'1314.4
2017-Oct-08 11:39N 49°37' W 003°59'314.1
2017-Oct-08 11:28N 49°38' W 003°56'613.8
2017-Oct-08 11:01N 49°42' W 003°48'713.2
2017-Oct-08 10:30N 49°45' W 003°38'612.6
2017-Oct-08 10:00N 49°48' W 003°30'612.0
2017-Oct-08 09:31N 49°51' W 003°22'611.4
2017-Oct-08 09:01N 49°54' W 003°14'610.9
2017-Oct-08 08:29N 49°57' W 003°07'510.7
2017-Oct-08 08:00N 49°59' W 002°60'610.7
2017-Oct-08 07:28N 50°01' W 002°51'510.9
2017-Oct-08 07:00N 50°02' W 002°43'9414.6
2017-Oct-08 00:31N 50°27' W 000°21'113.6
2017-Oct-08 00:29N 50°27' W 000°21'612.1
2017-Oct-08 00:00N 50°28' W 000°12'611.0
2017-Oct-07 23:30N 50°29' W 000°03'5 9.9
2017-Oct-07 23:00N 50°31' E 000°04'5 9.1
2017-Oct-07 22:30N 50°32' E 000°11'4 8.7
2017-Oct-07 22:00N 50°33' E 000°18'4 8.8
2017-Oct-07 21:30N 50°35' E 000°24'4 8.8
2017-Oct-07 21:00N 50°36' E 000°31'5 9.5
2017-Oct-07 20:30N 50°37' E 000°38'510.9
2017-Oct-07 20:00N 50°41' E 000°44'611.8
2017-Oct-07 19:30N 50°45' E 000°51'612.6
2017-Oct-07 19:00N 50°49' E 000°58'712.9
2017-Oct-07 18:30N 50°53' E 001°07'612.7
2017-Oct-07 18:00N 50°57' E 001°15'612.3
2017-Oct-07 17:31N 51°01' E 001°22'611.4
2017-Oct-07 17:00N 51°05' E 001°29'510.3
2017-Oct-07 16:30N 51°08' E 001°35'5 9.5
2017-Oct-07 16:00N 51°11' E 001°41'5 9.4
2017-Oct-07 15:31N 51°14' E 001°46'5 9.3
2017-Oct-07 15:01N 51°19' E 001°49'4 8.9
2017-Oct-07 14:30N 51°23' E 001°52'4 8.9
2017-Oct-07 14:00N 51°27' E 001°55'4 8.9
2017-Oct-07 13:31N 51°30' E 001°59'5 9.1
2017-Oct-07 13:01N 51°34' E 002°04'5 9.6
2017-Oct-07 12:30N 51°38' E 002°09'8910.4
2017-Oct-07 03:57N 52°47' E 003°41'5 9.1
2017-Oct-07 03:25N 52°50' E 003°47'5210.2
2017-Oct-06 22:17N 53°30' E 004°43'3 9.4
2017-Oct-06 22:00N 53°31' E 004°47'5 9.1
2017-Oct-06 21:30N 53°32' E 004°55'4 9.0
2017-Oct-06 21:01N 53°34' E 005°01'4 8.3
2017-Oct-06 20:29N 53°35' E 005°08'94 6.9
2017-Oct-06 06:58N 54°02' E 007°41'2 4.2
2017-Oct-06 06:30N 54°01' E 007°44'3 4.6
2017-Oct-06 05:55N 54°01' E 007°49'3 5.4
2017-Oct-06 05:19N 54°01' E 007°54'2 6.9
2017-Oct-06 04:59N 54°01' E 007°58'3 6.7
2017-Oct-06 04:30N 54°01' E 008°04'3 7.1
2017-Oct-06 04:00N 54°01' E 008°09'1810.5
2017-Oct-06 02:17N 53°56' E 008°39'311.4
2017-Oct-06 01:59N 53°54' E 008°42'510.4
2017-Oct-06 01:30N 53°50' E 008°49'5 9.6
2017-Oct-06 01:00N 53°51' E 008°57'4 8.5
2017-Oct-06 00:30N 53°52' E 009°04'3 6.7
2017-Oct-06 00:00N 53°54' E 009°09'0 0.0
2017-Oct-05 23:30N 53°54' E 009°09'0 0.9
2017-Oct-05 23:00N 53°54' E 009°09'3 5.0
2017-Oct-05 22:30N 53°56' E 009°12'3 6.7
2017-Oct-05 22:00N 53°58' E 009°16'3 6.5
2017-Oct-05 21:30N 54°01' E 009°18'3 6.2
2017-Oct-05 21:00N 54°04' E 009°19'3 6.5
2017-Oct-05 20:31N 54°08' E 009°20'3 5.7
2017-Oct-05 20:01N 54°09' E 009°23'3 6.2
2017-Oct-05 19:31N 54°11' E 009°28'3 6.4
2017-Oct-05 19:01N 54°12' E 009°33'3 5.9
2017-Oct-05 18:31N 54°14' E 009°37'3 6.4
2017-Oct-05 18:00N 54°17' E 009°39'3 6.0
2017-Oct-05 17:31N 54°19' E 009°43'4 7.1
2017-Oct-05 16:59N 54°22' E 009°47'31 6.3
2017-Oct-05 12:01N 54°35' E 010°36'211.9
2017-Oct-05 11:53N 54°35' E 010°38'512.2
2017-Oct-05 11:31N 54°35' E 010°46'612.4
2017-Oct-05 11:01N 54°36' E 010°57'612.0
2017-Oct-05 10:30N 54°36' E 011°07'611.9
2017-Oct-05 10:01N 54°34' E 011°17'611.4
2017-Oct-05 09:30N 54°32' E 011°26'510.7
2017-Oct-05 09:01N 54°30' E 011°34'510.9
2017-Oct-05 08:31N 54°27' E 011°43'510.7
2017-Oct-05 08:01N 54°26' E 011°52'1111.1
2017-Oct-05 07:03N 54°28' E 012°10'010.1
2017-Oct-05 07:00N 54°28' E 012°10'611.4
2017-Oct-05 06:31N 54°33' E 012°13'510.7
2017-Oct-05 06:01N 54°38' E 012°17'8710.4
2017-Oct-04 21:39N 54°40' E 014°47'310.4
2017-Oct-04 21:22N 54°40' E 014°52'410.2
2017-Oct-04 20:59N 54°41' E 014°59'5 9.5
2017-Oct-04 20:25N 54°41' E 015°08'99 8.4
2017-Oct-04 08:40N 54°58' E 017°58'2 9.1
2017-Oct-04 08:26N 54°58' E 018°01'4 8.8
2017-Oct-04 08:00N 54°58' E 018°08'4 8.7
2017-Oct-04 07:31N 54°57' E 018°15'4 8.5
2017-Oct-04 07:00N 54°57' E 018°23'4 8.0
2017-Oct-04 06:30N 54°57' E 018°30'5 9.3
2017-Oct-04 06:01N 54°58' E 018°38'510.9
2017-Oct-04 05:31N 54°56' E 018°47'510.6
2017-Oct-04 05:01N 54°54' E 018°56'510.5
2017-Oct-04 04:30N 54°53' E 019°05'510.4
2017-Oct-04 04:01N 54°51' E 019°13'510.2
2017-Oct-04 03:30N 54°50' E 019°22'510.2
2017-Oct-04 03:01N 54°47' E 019°29'510.3
2017-Oct-04 02:31N 54°45' E 019°37'510.1
2017-Oct-04 02:00N 54°42' E 019°45'  
Track history (hours):
 
Tides and Currents Weather Stations Pressure Air Temp Water Temp Dewpoint Dewpoint Depression Visibility Wind Speed Wind Dir Waves Ship Positions

African Joseph R

Last reported at 2017-Oct-14 01:20 UTC. Time now 2017-Oct-17 17:09 UTC.
Position N 27°05' W 015°18'.

Length 140 m; draft 9.1 m.

Type: Cargo ship. MMSI: 636016043.

Date/timePositionNaut miles runAvg speedWind from/ knotsBaromVisibWave heightAir tempDewpointWater temp
2017-Oct-14 01:20N 27°05' W 015°18'2813.1
2017-Oct-13 23:13N 27°33' W 015°16'313.1
2017-Oct-13 23:00N 27°36' W 015°16'713.7
2017-Oct-13 22:30N 27°43' W 015°16'713.9
2017-Oct-13 22:00N 27°50' W 015°16'713.7
2017-Oct-13 21:31N 27°56' W 015°15'612.9
2017-Oct-13 21:01N 28°03' W 015°17'612.4
2017-Oct-13 20:31N 28°06' W 015°23'1 2.5
2017-Oct-13 19:57N 28°07' W 015°25'0 0.0
2017-Oct-13 19:27N 28°07' W 015°25'0 0.0
2017-Oct-13 18:57N 28°07' W 015°24'0 0.0
2017-Oct-13 18:30N 28°07' W 015°25'0 0.0
2017-Oct-13 18:00N 28°07' W 015°25'0 0.0
2017-Oct-13 17:30N 28°07' W 015°25'0 0.0
2017-Oct-13 17:00N 28°07' W 015°25'0 0.0
2017-Oct-13 16:30N 28°07' W 015°25'0 0.0
2017-Oct-13 16:00N 28°07' W 015°25'0 0.1
2017-Oct-13 15:30N 28°07' W 015°25'0 0.1
2017-Oct-13 15:00N 28°07' W 015°25'0 0.2
2017-Oct-13 14:27N 28°07' W 015°25'0 0.1
2017-Oct-13 13:57N 28°07' W 015°25'0 0.0
2017-Oct-13 13:30N 28°07' W 015°25'0 0.1
2017-Oct-13 13:00N 28°07' W 015°25'0 0.0
2017-Oct-13 12:21N 28°07' W 015°25'0 0.0
2017-Oct-13 12:00N 28°07' W 015°25'0 0.0
2017-Oct-13 11:21N 28°07' W 015°25'0 0.0
2017-Oct-13 10:51N 28°07' W 015°25'0 0.0
2017-Oct-13 10:21N 28°07' W 015°25'0 0.1
2017-Oct-13 09:54N 28°07' W 015°25'0 0.0
2017-Oct-13 09:24N 28°07' W 015°25'0 0.1
2017-Oct-13 08:39N 28°07' W 015°25'0 0.0
2017-Oct-13 08:24N 28°07' W 015°25'0 0.0
2017-Oct-13 07:54N 28°07' W 015°25'0 0.1
2017-Oct-13 07:30N 28°07' W 015°25'0 0.1
2017-Oct-13 07:00N 28°07' W 015°25'0 0.1
2017-Oct-13 06:30N 28°07' W 015°25'0 0.1
2017-Oct-13 06:00N 28°07' W 015°25'0 0.0
2017-Oct-13 05:30N 28°07' W 015°25'0 0.0
2017-Oct-13 05:00N 28°07' W 015°25'0 0.1
2017-Oct-13 04:30N 28°07' W 015°25'0 0.0
2017-Oct-13 04:00N 28°07' W 015°25'0 0.0
2017-Oct-13 03:30N 28°07' W 015°25'0 0.2
2017-Oct-13 03:00N 28°07' W 015°25'2 3.6
2017-Oct-13 02:30N 28°08' W 015°23'3 6.0
2017-Oct-13 02:00N 28°11' W 015°22'4 7.9
2017-Oct-13 01:30N 28°15' W 015°21'5 9.2
2017-Oct-13 01:00N 28°19' W 015°20'510.2
2017-Oct-13 00:30N 28°24' W 015°18'612.1
2017-Oct-13 00:00N 28°30' W 015°16'612.7
2017-Oct-12 23:30N 28°36' W 015°14'713.1
2017-Oct-12 23:00N 28°42' W 015°13'713.4
2017-Oct-12 22:30N 28°49' W 015°11'713.3
2017-Oct-12 22:00N 28°55' W 015°09'713.2
2017-Oct-12 21:30N 29°02' W 015°07'713.3
2017-Oct-12 21:00N 29°08' W 015°05'713.3
2017-Oct-12 20:30N 29°15' W 015°03'713.3
2017-Oct-12 20:00N 29°21' W 015°01'613.1
2017-Oct-12 19:30N 29°27' W 014°59'612.6
2017-Oct-12 19:00N 29°33' W 014°57'612.6
2017-Oct-12 18:30N 29°39' W 014°55'612.7
2017-Oct-12 18:00N 29°45' W 014°54'612.7
2017-Oct-12 17:30N 29°52' W 014°52'913.1
2017-Oct-12 16:50N 30°00' W 014°49'712.9
2017-Oct-12 16:18N 30°07' W 014°48'412.0
2017-Oct-12 15:56N 30°11' W 014°47'512.0
2017-Oct-12 15:30N 30°16' W 014°45'612.0
2017-Oct-12 15:00N 30°22' W 014°43'712.0
2017-Oct-12 14:24N 30°29' W 014°41'512.2
2017-Oct-12 14:00N 30°34' W 014°40'612.6
2017-Oct-12 13:30N 30°40' W 014°38'713.1
2017-Oct-12 13:00N 30°46' W 014°36'3213.6
2017-Oct-12 10:37N 31°17' W 014°27'213.9
2017-Oct-12 10:30N 31°19' W 014°26'713.7
2017-Oct-12 10:00N 31°26' W 014°24'713.6
2017-Oct-12 09:30N 31°32' W 014°22'713.6
2017-Oct-12 09:00N 31°39' W 014°20'1113.3
2017-Oct-12 08:10N 31°49' W 014°16'213.3
2017-Oct-12 08:00N 31°51' W 014°15'40812.8
2017-Oct-11 00:00N 38°27' W 012°11'713.4
2017-Oct-10 23:30N 38°33' W 012°09'713.4
2017-Oct-10 23:01N 38°40' W 012°06'713.2
2017-Oct-10 22:31N 38°46' W 012°04'713.0
2017-Oct-10 22:00N 38°53' W 012°02'713.3
2017-Oct-10 21:30N 38°59' W 012°00'713.3
2017-Oct-10 21:00N 39°05' W 011°58'713.3
2017-Oct-10 20:30N 39°12' W 011°56'613.0
2017-Oct-10 20:00N 39°18' W 011°54'612.8
2017-Oct-10 19:30N 39°24' W 011°52'613.0
2017-Oct-10 19:00N 39°31' W 011°50'713.3
2017-Oct-10 18:30N 39°37' W 011°48'713.1
2017-Oct-10 18:00N 39°44' W 011°45'612.8
2017-Oct-10 17:30N 39°50' W 011°43'812.7
2017-Oct-10 16:54N 39°57' W 011°41'513.0
2017-Oct-10 16:30N 40°02' W 011°39'713.1
2017-Oct-10 16:00N 40°08' W 011°37'713.0
2017-Oct-10 15:30N 40°15' W 011°35'612.5
2017-Oct-10 15:00N 40°21' W 011°33'1212.2
2017-Oct-10 14:00N 40°33' W 011°30'612.4
2017-Oct-10 13:30N 40°39' W 011°28'612.8
2017-Oct-10 13:00N 40°45' W 011°25'713.1
2017-Oct-10 12:30N 40°51' W 011°22'713.1
2017-Oct-10 12:00N 40°57' W 011°20'713.1
2017-Oct-10 11:29N 41°04' W 011°18'613.4
2017-Oct-10 11:00N 41°10' W 011°16'713.6
2017-Oct-10 10:30N 41°17' W 011°14'713.5
2017-Oct-10 10:00N 41°24' W 011°12'713.2
2017-Oct-10 09:30N 41°30' W 011°10'713.6
2017-Oct-10 09:00N 41°37' W 011°08'813.7
2017-Oct-10 08:25N 41°44' W 011°05'54612.5
2017-Oct-08 12:35N 49°30' W 004°17'1314.4
2017-Oct-08 11:39N 49°37' W 003°59'314.1
2017-Oct-08 11:28N 49°38' W 003°56'613.8
2017-Oct-08 11:01N 49°42' W 003°48'713.2
2017-Oct-08 10:30N 49°45' W 003°38'612.6
2017-Oct-08 10:00N 49°48' W 003°30'612.0
2017-Oct-08 09:31N 49°51' W 003°22'611.4
2017-Oct-08 09:01N 49°54' W 003°14'610.9
2017-Oct-08 08:29N 49°57' W 003°07'510.7
2017-Oct-08 08:00N 49°59' W 002°60'610.7
2017-Oct-08 07:28N 50°01' W 002°51'510.9
2017-Oct-08 07:00N 50°02' W 002°43'9414.6
2017-Oct-08 00:31N 50°27' W 000°21'113.6
2017-Oct-08 00:29N 50°27' W 000°21'612.1
2017-Oct-08 00:00N 50°28' W 000°12'611.0
2017-Oct-07 23:30N 50°29' W 000°03'5 9.9
2017-Oct-07 23:00N 50°31' E 000°04'5 9.1
2017-Oct-07 22:30N 50°32' E 000°11'4 8.7
2017-Oct-07 22:00N 50°33' E 000°18'4 8.8
2017-Oct-07 21:30N 50°35' E 000°24'4 8.8
2017-Oct-07 21:00N 50°36' E 000°31'5 9.5
2017-Oct-07 20:30N 50°37' E 000°38'510.9
2017-Oct-07 20:00N 50°41' E 000°44'611.8
2017-Oct-07 19:30N 50°45' E 000°51'612.6
2017-Oct-07 19:00N 50°49' E 000°58'712.9
2017-Oct-07 18:30N 50°53' E 001°07'612.7
2017-Oct-07 18:00N 50°57' E 001°15'612.3
2017-Oct-07 17:31N 51°01' E 001°22'611.4
2017-Oct-07 17:00N 51°05' E 001°29'510.3
2017-Oct-07 16:30N 51°08' E 001°35'5 9.5
2017-Oct-07 16:00N 51°11' E 001°41'5 9.4
2017-Oct-07 15:31N 51°14' E 001°46'5 9.3
2017-Oct-07 15:01N 51°19' E 001°49'4 8.9
2017-Oct-07 14:30N 51°23' E 001°52'4 8.9
2017-Oct-07 14:00N 51°27' E 001°55'4 8.9
2017-Oct-07 13:31N 51°30' E 001°59'5 9.1
2017-Oct-07 13:01N 51°34' E 002°04'5 9.6
2017-Oct-07 12:30N 51°38' E 002°09'8910.4
2017-Oct-07 03:57N 52°47' E 003°41'5 9.1
2017-Oct-07 03:25N 52°50' E 003°47'5210.2
2017-Oct-06 22:17N 53°30' E 004°43'3 9.4
2017-Oct-06 22:00N 53°31' E 004°47'5 9.1
2017-Oct-06 21:30N 53°32' E 004°55'4 9.0
2017-Oct-06 21:01N 53°34' E 005°01'4 8.3
2017-Oct-06 20:29N 53°35' E 005°08'94 6.9
2017-Oct-06 06:58N 54°02' E 007°41'2 4.2
2017-Oct-06 06:30N 54°01' E 007°44'3 4.6
2017-Oct-06 05:55N 54°01' E 007°49'3 5.4
2017-Oct-06 05:19N 54°01' E 007°54'2 6.9
2017-Oct-06 04:59N 54°01' E 007°58'3 6.7
2017-Oct-06 04:30N 54°01' E 008°04'3 7.1
2017-Oct-06 04:00N 54°01' E 008°09'1810.5
2017-Oct-06 02:17N 53°56' E 008°39'311.4
2017-Oct-06 01:59N 53°54' E 008°42'510.4
2017-Oct-06 01:30N 53°50' E 008°49'5 9.6
2017-Oct-06 01:00N 53°51' E 008°57'4 8.5
2017-Oct-06 00:30N 53°52' E 009°04'3 6.7
2017-Oct-06 00:00N 53°54' E 009°09'0 0.0
2017-Oct-05 23:30N 53°54' E 009°09'0 0.9
2017-Oct-05 23:00N 53°54' E 009°09'3 5.0
2017-Oct-05 22:30N 53°56' E 009°12'3 6.7
2017-Oct-05 22:00N 53°58' E 009°16'3 6.5
2017-Oct-05 21:30N 54°01' E 009°18'3 6.2
2017-Oct-05 21:00N 54°04' E 009°19'3 6.5
2017-Oct-05 20:31N 54°08' E 009°20'3 5.7
2017-Oct-05 20:01N 54°09' E 009°23'3 6.2
2017-Oct-05 19:31N 54°11' E 009°28'3 6.4
2017-Oct-05 19:01N 54°12' E 009°33'3 5.9
2017-Oct-05 18:31N 54°14' E 009°37'3 6.4
2017-Oct-05 18:00N 54°17' E 009°39'3 6.0
2017-Oct-05 17:31N 54°19' E 009°43'4 7.1
2017-Oct-05 16:59N 54°22' E 009°47'31 6.3
2017-Oct-05 12:01N 54°35' E 010°36'211.9
2017-Oct-05 11:53N 54°35' E 010°38'512.2
2017-Oct-05 11:31N 54°35' E 010°46'612.4
2017-Oct-05 11:01N 54°36' E 010°57'612.0
2017-Oct-05 10:30N 54°36' E 011°07'611.9
2017-Oct-05 10:01N 54°34' E 011°17'611.4
2017-Oct-05 09:30N 54°32' E 011°26'510.7
2017-Oct-05 09:01N 54°30' E 011°34'510.9
2017-Oct-05 08:31N 54°27' E 011°43'510.7
2017-Oct-05 08:01N 54°26' E 011°52'1111.1
2017-Oct-05 07:03N 54°28' E 012°10'010.1
2017-Oct-05 07:00N 54°28' E 012°10'611.4
2017-Oct-05 06:31N 54°33' E 012°13'510.7
2017-Oct-05 06:01N 54°38' E 012°17'8710.4
2017-Oct-04 21:39N 54°40' E 014°47'310.4
2017-Oct-04 21:22N 54°40' E 014°52'410.2
2017-Oct-04 20:59N 54°41' E 014°59'5 9.5
2017-Oct-04 20:25N 54°41' E 015°08'99 8.4
2017-Oct-04 08:40N 54°58' E 017°58'2 9.1
2017-Oct-04 08:26N 54°58' E 018°01'4 8.8
2017-Oct-04 08:00N 54°58' E 018°08'4 8.7
2017-Oct-04 07:31N 54°57' E 018°15'4 8.5
2017-Oct-04 07:00N 54°57' E 018°23'4 8.0
2017-Oct-04 06:30N 54°57' E 018°30'5 9.3
2017-Oct-04 06:01N 54°58' E 018°38'510.9
2017-Oct-04 05:31N 54°56' E 018°47'510.6
2017-Oct-04 05:01N 54°54' E 018°56'510.5
2017-Oct-04 04:30N 54°53' E 019°05'510.4
2017-Oct-04 04:01N 54°51' E 019°13'510.2
2017-Oct-04 03:30N 54°50' E 019°22'510.2
2017-Oct-04 03:01N 54°47' E 019°29'510.3
2017-Oct-04 02:31N 54°45' E 019°37'510.1
2017-Oct-04 02:00N 54°42' E 019°45'  

Dump ship's entire track history